createdAt,value
2023-03-29T00:01:35.502Z,39.80
2023-03-29T00:04:41.897Z,40.10
2023-03-29T00:07:53.610Z,40.20
2023-03-29T00:11:06.847Z,39.30
2023-03-29T00:14:15.294Z,39.10
2023-03-29T00:17:28.871Z,39.10
2023-03-29T00:20:39.032Z,39.50
2023-03-29T00:23:49.841Z,39.70
2023-03-29T00:27:00.773Z,40.00
2023-03-29T00:30:10.587Z,39.90
2023-03-29T00:33:22.826Z,39.60
2023-03-29T00:36:32.900Z,39.50
2023-03-29T00:39:46.944Z,38.90
2023-03-29T00:42:58.410Z,38.60
2023-03-29T00:46:09.542Z,38.80
2023-03-29T00:49:18.641Z,38.90
2023-03-29T00:52:31.095Z,39.10
2023-03-29T00:55:45.342Z,39.50
2023-03-29T00:58:57.917Z,39.60
2023-03-29T01:02:14.214Z,39.90
2023-03-29T01:05:28.275Z,40.20
2023-03-29T01:08:38.005Z,40.10
2023-03-29T01:11:48.071Z,39.90
2023-03-29T01:14:56.582Z,40.00
2023-03-29T01:18:07.745Z,39.80
2023-03-29T01:21:25.243Z,40.10
2023-03-29T01:25:02.244Z,40.60
2023-03-29T01:28:14.464Z,40.80
2023-03-29T01:31:26.969Z,40.30
2023-03-29T01:34:40.884Z,40.20
2023-03-29T01:37:53.714Z,40.10
2023-03-29T01:41:09.521Z,40.30
2023-03-29T01:44:22.974Z,40.40
2023-03-29T01:47:35.198Z,40.00
2023-03-29T01:50:46.634Z,39.80
2023-03-29T01:53:58.050Z,39.90
2023-03-29T01:57:09.406Z,40.00
2023-03-29T02:00:23.084Z,39.80
2023-03-29T02:03:36.354Z,39.70
2023-03-29T02:06:48.969Z,39.60
2023-03-29T02:10:00.106Z,39.80
2023-03-29T02:13:11.735Z,39.80
2023-03-29T02:16:23.264Z,39.80
2023-03-29T02:19:35.132Z,39.60
2023-03-29T02:22:44.601Z,39.50
2023-03-29T02:25:58.555Z,39.60
2023-03-29T02:29:11.237Z,39.70
2023-03-29T02:32:22.616Z,39.60
2023-03-29T02:35:37.604Z,39.60
2023-03-29T02:38:48.882Z,39.50
2023-03-29T02:41:57.753Z,39.50
2023-03-29T02:45:11.573Z,39.50
2023-03-29T02:48:24.237Z,39.50
2023-03-29T02:51:36.256Z,39.40
2023-03-29T02:54:47.566Z,39.50
2023-03-29T02:58:00.099Z,39.40
2023-03-29T03:01:11.936Z,39.40
2023-03-29T03:04:23.807Z,39.30
2023-03-29T03:07:34.288Z,39.20
2023-03-29T03:10:48.666Z,39.20
2023-03-29T03:14:01.303Z,39.20
2023-03-29T03:17:11.315Z,38.90
2023-03-29T03:20:24.714Z,38.90
2023-03-29T03:23:32.828Z,38.80
2023-03-29T03:26:43.263Z,38.80
2023-03-29T03:29:54.032Z,38.60
2023-03-29T03:33:04.932Z,38.50
2023-03-29T03:36:15.090Z,38.40
2023-03-29T03:39:26.314Z,38.40
2023-03-29T03:42:34.969Z,38.30
2023-03-29T03:45:47.184Z,38.10
2023-03-29T03:48:57.068Z,38.10
2023-03-29T03:52:07.164Z,38.00
2023-03-29T03:55:18.507Z,38.10
2023-03-29T03:58:27.771Z,38.20
2023-03-29T04:01:38.339Z,38.20
2023-03-29T04:04:48.266Z,38.20
2023-03-29T04:07:57.288Z,38.20
2023-03-29T04:11:09.107Z,38.30
2023-03-29T04:14:19.081Z,38.30
2023-03-29T04:17:31.803Z,38.30
2023-03-29T04:20:42.307Z,38.30
2023-03-29T04:23:53.406Z,38.40
2023-03-29T04:27:03.572Z,38.40
2023-03-29T04:30:19.736Z,38.50
2023-03-29T04:33:32.269Z,38.40
2023-03-29T04:36:41.384Z,38.40
2023-03-29T04:39:56.884Z,38.40
2023-03-29T04:43:08.379Z,38.50
2023-03-29T04:46:18.746Z,38.50
2023-03-29T04:49:31.295Z,38.50
2023-03-29T04:52:43.963Z,38.40
2023-03-29T04:55:55.240Z,38.60
2023-03-29T04:59:07.022Z,38.60
2023-03-29T05:02:16.888Z,38.50
2023-03-29T05:05:27.926Z,38.50
2023-03-29T05:08:40.711Z,38.40
2023-03-29T05:11:50.723Z,38.40
2023-03-29T05:15:00.377Z,38.40
2023-03-29T05:18:10.042Z,38.40
2023-03-29T05:21:22.234Z,38.40
2023-03-29T05:24:34.895Z,38.40
2023-03-29T05:27:48.180Z,38.50
2023-03-29T05:31:06.697Z,38.50
2023-03-29T05:34:19.247Z,38.50
2023-03-29T05:37:31.016Z,38.30
2023-03-29T05:40:39.874Z,38.40
2023-03-29T05:43:52.295Z,38.40
2023-03-29T05:47:05.003Z,38.40
2023-03-29T05:50:20.604Z,38.30
2023-03-29T05:53:32.756Z,38.30
2023-03-29T05:56:41.636Z,38.40
2023-03-29T05:59:50.659Z,38.40
2023-03-29T06:03:14.031Z,38.40
2023-03-29T06:06:16.964Z,38.30
2023-03-29T06:09:28.902Z,38.20
2023-03-29T06:12:41.661Z,38.30
2023-03-29T06:15:53.298Z,38.40
2023-03-29T06:19:03.212Z,38.30
2023-03-29T06:22:14.990Z,38.30
2023-03-29T06:25:27.608Z,38.30
2023-03-29T06:28:38.413Z,38.30
2023-03-29T06:31:47.125Z,38.30
2023-03-29T06:34:57.109Z,38.30
2023-03-29T06:38:07.012Z,38.30
2023-03-29T06:41:18.474Z,38.30
2023-03-29T06:44:30.950Z,38.30
2023-03-29T06:50:54.079Z,38.20
2023-03-29T06:54:06.018Z,38.20
2023-03-29T06:57:17.927Z,38.30
2023-03-29T07:00:35.818Z,38.20
2023-03-29T07:03:46.739Z,38.20
2023-03-29T07:07:04.698Z,38.40
2023-03-29T07:10:19.677Z,39.00
2023-03-29T07:13:32.083Z,38.40
2023-03-29T07:16:43.315Z,38.10
2023-03-29T07:19:53.488Z,37.70
2023-03-29T07:23:04.169Z,37.70
2023-03-29T07:26:28.785Z,37.80
2023-03-29T07:29:31.766Z,37.90
2023-03-29T07:32:42.262Z,38.00
2023-03-29T07:35:56.915Z,38.00
2023-03-29T07:39:09.738Z,38.10
2023-03-29T07:42:21.311Z,38.20
2023-03-29T07:45:31.468Z,38.10
2023-03-29T07:48:41.311Z,38.10
2023-03-29T07:51:50.161Z,38.20
2023-03-29T07:55:01.258Z,38.40
2023-03-29T07:58:11.872Z,38.50
2023-03-29T08:01:21.047Z,38.30
2023-03-29T08:04:32.652Z,38.10
2023-03-29T08:07:43.313Z,37.80
2023-03-29T08:10:55.572Z,37.80
2023-03-29T08:14:05.429Z,37.90
2023-03-29T08:17:16.248Z,38.10
2023-03-29T08:20:29.323Z,38.10
2023-03-29T08:23:41.752Z,38.10
2023-03-29T08:26:52.564Z,38.20
2023-03-29T08:30:04.858Z,38.30
2023-03-29T08:33:17.654Z,38.30
2023-03-29T08:36:28.852Z,38.20
2023-03-29T08:39:40.443Z,38.00
2023-03-29T08:42:58.499Z,37.70
2023-03-29T08:46:13.402Z,38.30
2023-03-29T08:49:23.091Z,37.90
2023-03-29T08:52:37.232Z,38.00
2023-03-29T08:55:50.947Z,38.10
2023-03-29T08:59:00.843Z,38.10
2023-03-29T09:02:18.249Z,38.40
2023-03-29T09:05:30.792Z,38.40
2023-03-29T09:08:44.197Z,38.30
2023-03-29T09:11:55.702Z,38.10
2023-03-29T09:15:11.827Z,37.90
2023-03-29T09:18:24.722Z,37.80
2023-03-29T09:21:37.109Z,37.90
2023-03-29T09:25:06.555Z,38.00
2023-03-29T09:28:22.814Z,38.10
2023-03-29T09:31:33.421Z,38.10
2023-03-29T09:34:42.918Z,38.10
2023-03-29T09:37:55.808Z,38.10
2023-03-29T09:41:10.022Z,38.10
2023-03-29T09:44:30.967Z,38.30
2023-03-29T09:47:37.529Z,38.40
2023-03-29T09:50:48.307Z,38.30
2023-03-29T09:54:03.171Z,38.10
2023-03-29T09:57:14.225Z,37.90
2023-03-29T10:00:27.188Z,37.80
2023-03-29T10:03:36.977Z,37.90
2023-03-29T10:06:50.985Z,38.10
2023-03-29T10:10:01.956Z,38.10
2023-03-29T10:13:13.442Z,38.10
2023-03-29T10:16:30.319Z,38.30
2023-03-29T10:19:40.157Z,38.40
2023-03-29T10:22:53.153Z,38.30
2023-03-29T10:26:05.421Z,38.30
2023-03-29T10:29:17.307Z,37.90
2023-03-29T10:32:33.101Z,37.80
2023-03-29T10:35:44.529Z,38.00
2023-03-29T10:38:53.957Z,37.90
2023-03-29T10:42:04.754Z,38.00
2023-03-29T10:45:31.979Z,38.00
2023-03-29T10:48:41.991Z,38.10
2023-03-29T10:51:52.218Z,38.40
2023-03-29T10:55:02.970Z,38.30
2023-03-29T10:58:18.541Z,38.30
2023-03-29T11:01:30.960Z,38.10
2023-03-29T11:04:45.172Z,38.00
2023-03-29T11:08:03.532Z,37.90
2023-03-29T11:11:23.908Z,38.20
2023-03-29T11:14:37.956Z,38.40
2023-03-29T11:18:00.299Z,39.30
2023-03-29T11:21:13.246Z,39.00
2023-03-29T11:28:09.465Z,40.10
2023-03-29T11:31:22.213Z,40.20
2023-03-29T11:34:33.238Z,40.50
2023-03-29T11:37:45.468Z,40.40
2023-03-29T11:41:01.450Z,40.30
2023-03-29T11:44:12.469Z,40.20
2023-03-29T11:47:25.586Z,40.00
2023-03-29T11:50:36.042Z,39.70
2023-03-29T11:53:49.616Z,39.50
2023-03-29T11:57:02.177Z,39.50
2023-03-29T12:00:18.516Z,39.30
2023-03-29T12:03:35.666Z,39.20
2023-03-29T12:06:50.717Z,38.80
2023-03-29T12:10:03.461Z,38.60
2023-03-29T12:13:17.184Z,39.20
2023-03-29T12:16:30.940Z,39.10
2023-03-29T12:19:44.018Z,39.00
2023-03-29T12:22:53.121Z,39.00
2023-03-29T12:26:03.874Z,38.90
2023-03-29T12:29:22.965Z,38.70
2023-03-29T12:32:41.673Z,38.50
2023-03-29T12:36:00.759Z,38.20
2023-03-29T12:39:13.006Z,38.30
2023-03-29T12:42:24.088Z,38.30
2023-03-29T12:45:38.427Z,38.80
2023-03-29T12:48:47.473Z,38.70
2023-03-29T12:51:56.732Z,38.60
2023-03-29T12:55:09.023Z,38.60
2023-03-29T12:58:36.163Z,38.50
2023-03-29T13:01:50.560Z,38.10
2023-03-29T13:05:01.926Z,37.90
2023-03-29T13:08:33.737Z,37.70
2023-03-29T13:11:46.700Z,38.10
2023-03-29T13:14:59.329Z,38.00
2023-03-29T13:18:14.322Z,37.90
2023-03-29T13:21:26.531Z,37.80
2023-03-29T13:28:20.318Z,37.70
2023-03-29T13:31:37.338Z,37.50
2023-03-29T13:34:50.491Z,37.20
2023-03-29T13:38:05.840Z,37.20
2023-03-29T13:41:47.204Z,37.10
2023-03-29T13:44:56.208Z,37.10
2023-03-29T13:48:23.271Z,37.30
2023-03-29T13:51:43.624Z,37.30
2023-03-29T13:54:59.142Z,37.40
2023-03-29T13:58:15.268Z,37.30
2023-03-29T14:01:28.538Z,36.90
2023-03-29T14:04:39.607Z,37.00
2023-03-29T14:07:51.376Z,37.20
2023-03-29T14:11:03.397Z,36.90
2023-03-29T14:14:13.995Z,37.10
2023-03-29T14:17:30.607Z,37.00
2023-03-29T14:20:42.755Z,37.00
2023-03-29T14:23:55.242Z,36.90
2023-03-29T14:27:06.487Z,36.70
2023-03-29T14:30:31.753Z,36.50
2023-03-29T14:33:42.788Z,36.50
2023-03-29T14:36:53.395Z,36.50
2023-03-29T14:40:06.347Z,36.50
2023-03-29T14:43:17.852Z,36.70
2023-03-29T14:46:30.264Z,36.60
2023-03-29T14:49:38.464Z,36.50
2023-03-29T14:52:50.357Z,36.40
2023-03-29T14:55:59.582Z,36.50
2023-03-29T14:59:20.021Z,36.40
2023-03-29T15:02:31.289Z,36.20
2023-03-29T15:05:43.454Z,36.00
2023-03-29T15:09:05.215Z,36.10
2023-03-29T15:12:09.648Z,36.00
2023-03-29T15:15:17.985Z,36.10
2023-03-29T15:18:31.939Z,36.00
2023-03-29T15:21:41.363Z,35.90
2023-03-29T15:24:55.101Z,35.90
2023-03-29T15:28:07.051Z,36.00
2023-03-29T15:31:18.333Z,35.80
2023-03-29T15:34:32.045Z,35.80
2023-03-29T15:37:43.471Z,35.70
2023-03-29T15:40:53.322Z,35.70
2023-03-29T15:44:03.765Z,35.60
2023-03-29T15:50:33.187Z,35.70
2023-03-29T15:53:41.520Z,35.80
2023-03-29T15:56:53.894Z,35.70
2023-03-29T16:00:03.590Z,35.90
2023-03-29T16:03:14.594Z,36.20
2023-03-29T16:06:26.283Z,36.00
2023-03-29T16:09:39.723Z,35.90
2023-03-29T16:12:49.790Z,36.50
2023-03-29T16:16:03.719Z,35.90
2023-03-29T16:19:15.434Z,35.70
2023-03-29T16:22:27.898Z,35.60
2023-03-29T16:25:41.547Z,35.50
2023-03-29T16:28:52.632Z,35.70
2023-03-29T16:32:06.939Z,35.80
2023-03-29T16:35:22.445Z,35.70
2023-03-29T16:38:35.498Z,35.50
2023-03-29T16:41:46.912Z,35.60
2023-03-29T16:44:58.903Z,35.70
2023-03-29T16:48:09.316Z,35.70
2023-03-29T16:51:19.836Z,35.70
2023-03-29T16:57:49.638Z,35.70
2023-03-29T17:01:02.113Z,35.80
2023-03-29T17:04:13.567Z,36.00
2023-03-29T17:07:26.857Z,35.90
2023-03-29T17:10:36.186Z,35.90
2023-03-29T17:13:48.891Z,35.80
2023-03-29T17:17:01.630Z,35.70
2023-03-29T17:20:14.098Z,35.80
2023-03-29T17:23:23.984Z,35.80
2023-03-29T17:26:37.161Z,36.00
2023-03-29T17:29:45.521Z,36.10
2023-03-29T17:32:55.804Z,36.30
2023-03-29T17:36:07.192Z,36.20
2023-03-29T17:39:19.783Z,36.50
2023-03-29T17:42:31.587Z,36.80
2023-03-29T17:45:41.496Z,36.70
2023-03-29T17:48:51.586Z,36.60
2023-03-29T17:52:00.937Z,36.30
2023-03-29T17:55:14.262Z,36.00
2023-03-29T17:58:28.725Z,36.10
2023-03-29T18:01:39.528Z,36.20
2023-03-29T18:04:48.945Z,36.40
2023-03-29T18:07:57.037Z,36.50
2023-03-29T18:11:14.211Z,36.60
2023-03-29T18:14:23.927Z,36.70
2023-03-29T18:17:35.501Z,36.70
2023-03-29T18:20:45.837Z,37.10
2023-03-29T18:23:57.366Z,37.00
2023-03-29T18:27:09.157Z,37.00
2023-03-29T18:30:22.306Z,36.80
2023-03-29T18:33:37.728Z,36.40
2023-03-29T18:36:47.728Z,36.40
2023-03-29T18:39:56.601Z,36.30
2023-03-29T18:43:05.627Z,36.40
2023-03-29T18:46:16.877Z,36.60
2023-03-29T18:49:28.812Z,36.60
2023-03-29T18:52:39.632Z,36.70
2023-03-29T18:55:51.003Z,36.70
2023-03-29T18:59:05.288Z,37.20
2023-03-29T19:02:16.476Z,37.20
2023-03-29T19:05:24.104Z,37.10
2023-03-29T19:08:35.015Z,36.90
2023-03-29T19:11:46.058Z,36.50
2023-03-29T19:14:57.284Z,36.50
2023-03-29T19:18:12.069Z,36.60
2023-03-29T19:21:21.521Z,36.80
2023-03-29T19:24:33.806Z,37.00
2023-03-29T19:27:44.634Z,37.10
2023-03-29T19:30:52.857Z,37.30
2023-03-29T19:34:02.830Z,37.50
2023-03-29T19:37:15.551Z,37.40
2023-03-29T19:40:24.984Z,37.30
2023-03-29T19:43:36.547Z,36.90
2023-03-29T19:46:46.753Z,36.80
2023-03-29T19:49:55.898Z,36.90
2023-03-29T19:53:04.034Z,37.00
2023-03-29T19:56:17.658Z,37.10
2023-03-29T19:59:29.443Z,37.50
2023-03-29T20:02:39.913Z,37.50
2023-03-29T20:05:48.786Z,37.30
2023-03-29T20:08:59.254Z,37.10
2023-03-29T20:12:13.542Z,36.90
2023-03-29T20:15:26.962Z,36.80
2023-03-29T20:21:55.693Z,37.10
2023-03-29T20:25:07.169Z,37.10
2023-03-29T20:28:16.433Z,37.40
2023-03-29T20:31:27.970Z,37.60
2023-03-29T20:34:38.844Z,37.40
2023-03-29T20:37:49.520Z,37.30
2023-03-29T20:40:59.596Z,37.00
2023-03-29T20:44:13.189Z,37.00
2023-03-29T20:47:23.275Z,37.00
2023-03-29T20:50:33.168Z,37.10
2023-03-29T20:53:44.541Z,37.20
2023-03-29T20:56:56.602Z,37.30
2023-03-29T21:00:12.086Z,37.30
2023-03-29T21:03:22.240Z,37.40
2023-03-29T21:06:36.887Z,37.50
2023-03-29T21:09:48.914Z,37.50
2023-03-29T21:13:04.652Z,37.40
2023-03-29T21:16:16.189Z,37.30
2023-03-29T21:19:27.547Z,37.00
2023-03-29T21:22:38.380Z,36.90
2023-03-29T21:25:48.939Z,36.90
2023-03-29T21:28:59.758Z,37.00
2023-03-29T21:32:13.527Z,37.00
2023-03-29T21:35:27.352Z,37.00
2023-03-29T21:38:35.639Z,37.10
2023-03-29T21:41:48.564Z,37.20
2023-03-29T21:44:59.399Z,37.30
2023-03-29T21:48:11.514Z,37.30
2023-03-29T21:51:19.656Z,37.30
2023-03-29T21:54:32.812Z,37.30
2023-03-29T21:57:41.942Z,37.30
2023-03-29T22:00:53.457Z,37.30
2023-03-29T22:04:04.797Z,37.30
2023-03-29T22:07:13.641Z,37.30
2023-03-29T22:10:27.030Z,37.20
2023-03-29T22:13:38.621Z,37.00
2023-03-29T22:16:52.701Z,36.60
2023-03-29T22:20:05.023Z,36.60
2023-03-29T22:23:15.888Z,36.70
2023-03-29T22:26:29.131Z,36.70
2023-03-29T22:29:36.521Z,36.80
2023-03-29T22:32:45.469Z,36.70
2023-03-29T22:35:54.322Z,36.70
2023-03-29T22:39:04.370Z,36.70
2023-03-29T22:42:15.412Z,36.80
2023-03-29T22:45:25.424Z,36.80
2023-03-29T22:48:37.307Z,36.80
2023-03-29T22:51:48.856Z,36.90
2023-03-29T22:55:02.292Z,36.90
2023-03-29T22:58:10.552Z,36.90
2023-03-29T23:01:22.376Z,36.80
2023-03-29T23:04:37.163Z,36.90
2023-03-29T23:07:45.252Z,36.70
2023-03-29T23:10:54.723Z,36.50
2023-03-29T23:14:05.309Z,36.30
2023-03-29T23:17:19.653Z,36.50
2023-03-29T23:20:30.806Z,36.80
2023-03-29T23:23:40.508Z,37.30
2023-03-29T23:26:49.613Z,37.70
2023-03-29T23:29:58.775Z,37.30
2023-03-29T23:33:09.040Z,37.90
2023-03-29T23:36:20.723Z,38.00
2023-03-29T23:39:31.930Z,37.80
2023-03-29T23:42:42.740Z,37.70
2023-03-29T23:45:54.213Z,36.60
2023-03-29T23:49:06.663Z,36.70
2023-03-29T23:52:19.373Z,36.70
2023-03-29T23:55:31.903Z,36.90
2023-03-29T23:58:43.619Z,37.10
